Latest Weather Observations for Green Cape

IDN60801

Issued at 11:12 am EDT Wednesday 16 January 2019 (issued every 10 minutes, with the page automatically refreshed every 10 minutes)

About weather observations | Map of weather stations | Latest weather observations for NSW | Other Formats
Station Details ID: 069137 Name: GREEN CAPE AWS Lat: -37.26 Lon: 150.05 Height: 19.4 m
Data from the previous 72 hours. | See also: Recent months at Green Cape
Date/Time
EDT
Temp
°C
App
Temp
°C
Dew
Point
°C
Rel
Hum
%
Delta-T
°C
Wind Press
QNH
hPa
Press
MSL
hPa
Rain since
9am
mm
Dir  Spd
km/h
Gust
km/h
Spd
kts
Gust
kts
16/11:00am 22.0 21.8 22.0 100 0.0 N 26 30 14 16 1009.5 1009.4 0.0
16/10:30am 21.7 20.9 21.7 100 0.0 N 28 32 15 17 1009.4 1009.3 0.0
16/10:00am 21.4 21.3 21.4 100 0.0 N 24 28 13 15 1009.7 1009.6 0.0
16/09:30am 21.3 21.5 21.3 100 0.0 N 22 28 12 15 1009.9 1009.8 0.0
16/09:00am 21.1 20.8 21.1 100 0.0 N 24 28 13 15 1009.9 1009.8 0.0
16/08:30am 21.1 21.6 21.1 100 0.0 N 20 24 11 13 1010.0 1009.9 0.0
16/08:00am 20.9 20.9 20.9 100 0.0 N 22 26 12 14 1009.9 1009.8 0.0
16/07:30am 21.0 22.4 21.0 100 0.0 N 15 19 8 10 1009.9 1009.8 0.0
16/07:00am 21.3 23.2 21.3 100 0.0 N 13 17 7 9 1009.7 1009.6 0.0
16/06:30am 21.0 19.5 21.0 100 0.0 N 30 33 16 18 1008.8 1008.7 0.0
16/06:00am 21.0 19.1 21.0 100 0.0 N 32 37 17 20 1008.5 1008.4 0.0
16/05:30am 21.1 19.7 21.1 100 0.0 N 30 37 16 20 1008.5 1008.4 0.0
16/05:00am 20.9 19.6 20.7 99 0.1 N 28 32 15 17 1008.5 1008.4 0.0
16/04:30am 20.4 20.0 20.2 99 0.1 N 22 24 12 13 1008.5 1008.4 0.0
16/04:00am 20.2 20.1 20.0 99 0.1 N 20 22 11 12 1008.5 1008.4 0.0
16/03:30am 20.3 20.3 20.1 99 0.1 N 20 22 11 12 1008.7 1008.6 0.0
16/03:00am 20.4 20.4 20.1 98 0.2 N 20 22 11 12 1008.9 1008.8 0.0
16/02:30am 20.5 20.5 20.2 98 0.2 N 20 22 11 12 1009.2 1009.1 0.0
16/02:00am 20.4 20.9 20.1 98 0.2 N 17 20 9 11 1009.5 1009.4 0.0
16/01:30am 20.5 21.1 20.2 98 0.2 N 17 20 9 11 1009.8 1009.7 0.0
16/01:00am 20.7 20.8 20.4 98 0.2 N 20 24 11 13 1009.8 1009.7 0.0
16/12:30am 20.8 20.2 20.5 98 0.2 N 24 26 13 14 1010.0 1009.9 0.0
16/12:00am 21.0 21.2 20.5 97 0.3 N 20 22 11 12 1010.1 1010.0 0.0
 
Date/Time
EDT
Temp
°C
App
Temp
°C
Dew
Point
°C
Rel
Hum
%
Delta-T
°C
Wind Press
QNH
hPa
Press
MSL
hPa
Rain since
9am
mm
Dir  Spd
km/h
Gust
km/h
Spd
kts
Gust
kts
15/11:30pm 21.0 20.8 20.5 97 0.3 N 22 24 12 13 1010.1 1010.0 0.0
15/11:00pm 20.8 21.4 20.3 97 0.3 N 17 19 9 10 1010.7 1010.6 0.0
15/10:30pm 21.2 20.6 20.5 96 0.5 N 24 26 13 14 1010.6 1010.5 0.0
15/10:00pm 21.5 22.4 20.8 96 0.5 N 17 20 9 11 1010.7 1010.6 0.0
15/09:30pm 20.9 20.9 20.2 96 0.4 N 20 22 11 12 1010.4 1010.3 0.0
15/09:00pm 21.3 21.1 20.5 95 0.5 N 22 24 12 13 1010.1 1010.0 0.0
15/08:30pm 21.5 21.0 20.7 95 0.5 N 24 26 13 14 1009.8 1009.7 0.0
15/08:00pm 21.9 22.2 20.7 93 0.8 N 20 26 11 14 1009.8 1009.7 0.0
15/07:30pm 22.3 21.1 20.9 92 0.9 N 28 30 15 16 1009.3 1009.2 0.0
15/07:00pm 22.9 22.4 21.4 91 1.0 N 26 28 14 15 1009.2 1009.1 0.0
15/06:30pm 22.9 21.5 21.2 90 1.1 N 30 32 16 17 1008.8 1008.7 0.0
15/06:00pm 24.3 24.1 22.0 87 1.5 NNE 26 28 14 15 1008.4 1008.3 0.0
15/05:30pm 24.2 23.3 21.5 85 1.8 N 28 30 15 16 1008.6 1008.5 0.0
15/05:00pm 24.6 24.1 22.1 86 1.7 NNE 28 30 15 16 1008.5 1008.4 0.0
15/04:30pm 24.9 25.3 22.4 86 1.7 NNE 24 26 13 14 1008.6 1008.5 0.0
15/04:00pm 24.7 25.2 22.0 85 1.8 N 22 22 12 12 1008.9 1008.8 0.0
15/03:30pm 23.8 23.5 21.1 85 1.8 N 24 28 13 15 1008.8 1008.7 0.0
15/03:00pm 24.9 23.8 21.8 83 2.1 N 30 33 16 18 1008.8 1008.7 0.0
15/02:30pm 25.1 23.7 22.0 83 2.1 NNE 32 33 17 18 1008.9 1008.8 0.0
15/02:00pm 24.8 23.2 21.5 82 2.2 NNE 32 35 17 19 1009.2 1009.1 0.0
15/01:30pm 24.5 22.6 21.4 83 2.0 NNE 33 37 18 20 1009.4 1009.3 0.0
15/01:00pm 25.0 23.0 21.9 83 2.1 NNE 35 39 19 21 1009.7 1009.6 0.0
15/12:30pm 24.5 22.9 21.6 84 1.9 NNE 32 35 17 19 1010.2 1010.1 0.0
15/12:00pm 24.3 22.8 22.0 87 1.5 NNE 33 37 18 20 1010.5 1010.4 0.0
15/11:30am 23.3 22.5 21.6 90 1.1 NNE 28 30 15 16 1010.9 1010.8 0.0
15/11:00am 22.9 21.3 21.5 92 0.9 NNE 32 35 17 19 1010.8 1010.7 0.0
15/10:30am 22.2 20.6 20.8 92 0.9 NNE 30 33 16 18 1011.2 1011.1 0.0
15/10:00am 22.4 21.0 21.2 93 0.8 NNE 30 33 16 18 1011.5 1011.4 0.0
15/09:30am 22.2 21.5 21.0 93 0.8 NNE 26 30 14 16 1011.8 1011.7 0.0
15/09:00am 22.5 20.6 21.3 93 0.8 NNE 33 44 18 24 1011.6 1011.5 0.2
15/08:30am 22.5 20.7 21.5 94 0.7 NNE 33 41 18 22 1011.7 1011.6 0.2
15/08:00am 22.2 21.0 21.5 96 0.5 NNE 30 37 16 20 1011.4 1011.3 0.2
15/07:30am 22.0 20.0 21.2 95 0.5 NNE 33 39 18 21 1011.5 1011.4 0.2
15/07:00am 21.9 19.6 21.2 96 0.5 NNE 35 41 19 22 1011.5 1011.4 0.2
15/06:30am 21.8 20.4 21.1 96 0.5 NNE 30 35 16 19 1011.3 1011.2 0.2
15/06:00am 21.8 20.4 21.1 96 0.5 NNE 30 33 16 18 1011.3 1011.2 0.2
15/05:30am 21.9 20.2 21.4 97 0.3 NNE 32 35 17 19 1011.3 1011.2 0.2
15/05:00am 21.8 20.8 21.3 97 0.3 NNE 28 32 15 17 1011.4 1011.3 0.2
15/04:30am 21.9 20.6 21.4 97 0.3 NNE 30 33 16 18 1011.3 1011.2 0.2
15/04:00am 21.9 20.6 21.4 97 0.3 NNE 30 32 16 17 1011.3 1011.2 0.2
15/03:30am 21.8 20.0 21.5 98 0.2 NNE 33 37 18 20 1011.3 1011.2 0.2
15/03:00am 21.6 21.0 21.3 98 0.2 NNE 26 30 14 16 1011.9 1011.8 0.2
15/02:30am 21.8 21.3 21.5 98 0.2 NNE 26 30 14 16 1012.5 1012.4 0.2
15/02:00am 21.7 21.2 21.4 98 0.2 NNE 26 30 14 16 1012.9 1012.8 0.2
15/01:30am 21.8 21.2 21.3 97 0.3 NNE 26 28 14 15 1013.0 1012.9 0.2
15/01:00am 21.8 20.8 21.3 97 0.3 NNE 28 30 15 16 1013.1 1013.0 0.2
15/12:30am 21.8 22.0 21.3 97 0.3 NNE 22 26 12 14 1013.5 1013.4 0.2
15/12:00am 21.9 21.7 21.2 96 0.5 NNE 24 28 13 15 1013.8 1013.7 0.2
 
Date/Time
EDT
Temp
°C
App
Temp
°C
Dew
Point
°C
Rel
Hum
%
Delta-T
°C
Wind Press
QNH
hPa
Press
MSL
hPa
Rain since
9am
mm
Dir  Spd
km/h
Gust
km/h
Spd
kts
Gust
kts
14/11:30pm 22.0 20.7 21.3 96 0.5 NNE 30 33 16 18 1013.6 1013.5 0.2
14/11:00pm 22.1 21.2 21.4 96 0.5 NNE 28 32 15 17 1014.0 1013.9 0.2
14/10:30pm 22.1 21.1 21.3 95 0.5 NNE 28 32 15 17 1014.0 1013.9 0.2
14/10:00pm 22.2 20.9 21.4 95 0.5 NNE 30 33 16 18 1014.0 1013.9 0.2
14/09:30pm 22.3 21.3 21.3 94 0.7 NNE 28 32 15 17 1013.9 1013.8 0.2
14/09:00pm 22.4 20.6 21.2 93 0.8 NNE 32 37 17 20 1013.4 1013.3 0.2
14/08:30pm 22.5 20.5 21.1 92 0.9 NNE 33 39 18 21 1013.1 1013.0 0.2
14/08:00pm 22.7 20.0 21.2 91 1.0 NNE 37 43 20 23 1012.6 1012.5 0.2
14/07:30pm 23.2 20.9 21.3 89 1.2 NNE 35 39 19 21 1012.7 1012.6 0.2
14/07:00pm 23.5 23.0 21.4 88 1.4 NNE 26 28 14 15 1012.9 1012.8 0.2
14/06:30pm 23.8 23.3 21.5 87 1.5 NNE 26 30 14 16 1012.8 1012.7 0.2
14/06:00pm 23.9 22.5 21.2 85 1.8 NNE 30 35 16 19 1012.4 1012.3 0.2
14/05:30pm 24.5 22.9 21.6 84 1.9 NNE 32 39 17 21 1012.2 1012.1 0.2
14/05:00pm 24.6 22.5 21.7 84 1.9 NNE 35 41 19 22 1012.2 1012.1 0.2
14/04:30pm 24.6 22.8 21.5 83 2.1 NNE 33 39 18 21 1012.4 1012.3 0.2
14/04:00pm 24.9 23.1 21.6 82 2.2 NNE 33 39 18 21 1012.7 1012.6 0.2
14/03:30pm 25.4 23.5 22.1 82 2.2 NNE 35 39 19 21 1012.9 1012.8 0.2
14/03:00pm 25.3 23.4 22.0 82 2.2 NNE 35 39 19 21 1013.2 1013.1 0.2
14/02:30pm 25.3 23.0 22.0 82 2.2 NNE 37 43 20 23 1013.4 1013.3 0.2
14/02:00pm 25.0 22.9 21.7 82 2.2 NNE 35 41 19 22 1013.6 1013.5 0.2
14/01:30pm 24.8 22.7 21.7 83 2.1 NNE 35 43 19 23 1014.1 1014.0 0.2
14/01:00pm 24.8 22.8 21.9 84 1.9 NNE 35 39 19 21 1014.5 1014.4 0.2
14/12:30pm 24.4 22.8 21.9 86 1.7 NNE 33 39 18 21 1015.0 1014.9 0.2
14/12:00pm 24.1 22.3 21.6 86 1.7 NNE 33 39 18 21 1015.5 1015.4 0.2
14/11:30am 24.4 23.9 22.1 87 1.5 NNE 28 32 15 17 1016.1 1016.0 0.2
14/11:00am 23.7 22.6 21.8 89 1.3 NNE 30 33 16 18 1016.1 1016.0 0.2
14/10:30am 23.7 23.9 22.1 91 1.1 NNE 24 28 13 15 1016.3 1016.2 0.2
14/10:00am 22.6 22.6 21.6 94 0.7 N 24 28 13 15 1016.5 1016.4 0.0
14/09:30am 21.9 21.0 21.4 97 0.3 NNE 28 32 15 17 1016.4 1016.3 0.0
14/09:00am 21.3 20.9 21.0 98 0.2 N 24 28 13 15 1016.8 1016.7 1.4
14/08:30am 20.9 21.3 20.6 98 0.2 N 19 20 10 11 1017.2 1017.1 1.4
14/08:00am 20.9 20.7 20.6 98 0.2 N 22 30 12 16 1017.3 1017.2 1.4
14/07:30am 21.4 16.9 21.1 98 0.2 NNE 46 54 25 29 1016.6 1016.5 1.0
14/07:00am 21.1 16.5 20.8 98 0.2 NE 46 54 25 29 1016.4 1016.3 1.0
14/06:30am 20.9 16.5 20.6 98 0.2 NE 44 56 24 30 1016.5 1016.4 1.0
14/06:00am 20.5 15.6 20.2 98 0.2 NNE 46 56 25 30 1016.6 1016.5 1.0
14/05:43am 20.4 18.8 20.1 98 0.2 NNE 28 46 15 25 1016.8 1016.7 1.0
14/05:30am 20.3 17.8 19.8 97 0.3 NNE 32 39 17 21 1017.2 1017.1 0.4
14/05:00am 20.2 18.5 19.7 97 0.3 NNE 28 32 15 17 1017.5 1017.4 0.0
14/04:30am 20.1 17.5 19.4 96 0.4 NNE 32 35 17 19 1017.5 1017.4 0.0
14/04:00am 19.8 17.7 19.0 95 0.5 NNE 28 32 15 17 1017.8 1017.7 0.0
14/03:30am 19.7 17.9 18.7 94 0.6 NNE 26 33 14 18 1018.3 1018.2 0.0
14/03:00am 19.9 16.6 18.4 91 0.9 NNE 33 39 18 21 1018.7 1018.6 0.0
14/02:30am 20.0 15.4 18.1 89 1.2 NNE 39 43 21 23 1019.0 1019.0 0.0
14/02:00am 20.9 17.2 18.3 85 1.6 NNE 35 43 19 23 1019.5 1019.5 0.0
14/01:30am 21.0 16.9 18.2 84 1.7 NE 37 46 20 25 1020.0 1020.0 0.0
14/01:00am 21.0 17.6 18.2 84 1.7 NE 33 39 18 21 1020.6 1020.6 0.0
14/12:30am 21.0 17.1 17.8 82 2.0 NE 35 39 19 21 1020.9 1020.9 0.0
14/12:00am 21.1 17.6 17.9 82 2.0 NE 33 39 18 21 1021.3 1021.3 0.0
 
Date/Time
EDT
Temp
°C
App
Temp
°C
Dew
Point
°C
Rel
Hum
%
Delta-T
°C
Wind Press
QNH
hPa
Press
MSL
hPa
Rain since
9am
mm
Dir  Spd
km/h
Gust
km/h
Spd
kts
Gust
kts
13/11:30pm 21.0 17.1 17.8 82 2.0 NE 35 39 19 21 1021.3 1021.3 0.0
13/11:00pm 21.0 17.6 17.8 82 2.0 NE 32 35 17 19 1021.7 1021.7 0.0
13/10:30pm 20.9 17.4 17.5 81 2.1 ENE 32 37 17 20 1021.9 1021.9 0.0
13/10:00pm 20.9 17.7 17.3 80 2.2 ENE 30 35 16 19 1022.2 1022.2 0.0
13/09:30pm 21.0 18.2 17.4 80 2.2 NE 28 33 15 18 1022.2 1022.2 0.0
13/09:00pm 20.9 17.9 16.9 78 2.4 ENE 28 33 15 18 1022.0 1022.0 0.0
13/08:30pm 21.1 18.9 16.9 77 2.6 ENE 24 32 13 17 1022.0 1022.0 0.0
13/08:00pm 21.1 18.1 16.7 76 2.7 ENE 28 33 15 18 1021.8 1021.8 0.0
13/07:30pm 21.3 18.9 16.5 74 2.9 ENE 24 32 13 17 1021.8 1021.8 0.0
13/07:00pm 21.6 19.4 16.8 74 2.9 ENE 24 28 13 15 1021.8 1021.8 0.0
13/06:30pm 21.8 19.4 16.5 72 3.2 ENE 24 28 13 15 1021.8 1021.8 0.0
13/06:00pm 22.3 20.4 16.8 71 3.4 ENE 22 26 12 14 1021.7 1021.7 0.0
13/05:30pm 22.8 21.0 17.0 70 3.6 ENE 22 26 12 14 1021.7 1021.7 0.0
13/05:00pm 23.0 21.6 17.0 69 3.7 ENE 20 24 11 13 1021.8 1021.8 0.0
13/04:30pm 23.1 21.7 16.9 68 3.8 ENE 20 24 11 13 1022.0 1022.0 0.0
13/04:00pm 23.4 22.1 17.2 68 3.8 ENE 20 24 11 13 1022.0 1022.0 0.0
13/03:30pm 23.3 22.1 17.1 68 3.8 E 19 22 10 12 1022.2 1022.2 0.0
13/03:00pm 23.1 21.7 16.9 68 3.8 E 20 24 11 13 1022.3 1022.3 0.0
13/02:30pm 23.5 22.4 17.3 68 3.8 E 19 22 10 12 1022.6 1022.6 0.0
13/02:00pm 23.9 23.2 17.4 67 4.0 E 17 20 9 11 1022.8 1022.8 0.0
13/01:30pm 24.0 24.2 17.7 68 3.9 E 13 17 7 9 1022.9 1022.9 0.0
13/01:00pm 24.1 23.5 17.6 67 4.0 ESE 17 19 9 10 1022.9 1022.9 0.0
13/12:30pm 24.5 25.2 18.0 67 4.1 ESE 11 15 6 8 1023.0 1023.0 0.0
13/12:00pm 24.5 24.4 18.7 70 3.7 SSE 17 19 9 10 1023.0 1023.0 0.0
13/11:30am 24.0 23.7 18.2 70 3.6 SSE 17 20 9 11 1023.1 1023.1 0.0

Other Formats:

Comma delimited format used in spreadsheet applications
http://www.bom.gov.au/fwo/IDN60801/IDN60801.94934.axf

JavaScript Object Notation format (JSON) in row-major order
http://www.bom.gov.au/fwo/IDN60801/IDN60801.94934.json